Time;durP1;ratioP1;P1;durP2;ratioP2;P2;SDS_P1;SDS_P2;PMS_P1;PMS_P2;Temp;Humidity;BMP_temperature;BMP_pressure;BME280_temperature;BME280_humidity;BME280_pressure;Samples;Min_cycle;Max_cycle;Signal;HPM_P1;HPM_P2
2021/06/25 00:00:47;;;;;;;7.82;4.13;;;20.60;71.50;;;;;;5035963;28;20489;-66
2021/06/25 00:03:12;;;;;;;6.97;4.00;;;20.60;71.60;;;;;;5053842;28;20108;-67
2021/06/25 00:05:38;;;;;;;7.15;4.30;;;20.60;71.50;;;;;;5053871;28;20068;-66
2021/06/25 00:08:04;;;;;;;6.68;4.22;;;20.60;71.50;;;;;;5046321;28;20123;-66
2021/06/25 00:10:30;;;;;;;8.73;3.95;;;20.60;71.50;;;;;;5035607;28;20063;-66
2021/06/25 00:12:56;;;;;;;6.65;4.03;;;20.60;71.60;;;;;;5053653;28;20049;-66
2021/06/25 00:15:21;;;;;;;7.00;4.07;;;20.60;71.50;;;;;;5053431;28;20021;-66
2021/06/25 00:17:47;;;;;;;6.25;3.67;;;20.60;71.50;;;;;;5035392;28;20076;-66
2021/06/25 00:20:14;;;;;;;7.28;3.80;;;20.60;71.60;;;;;;5035449;28;20017;-67
2021/06/25 00:22:40;;;;;;;6.45;3.72;;;20.60;71.70;;;;;;5053364;28;20446;-66
2021/06/25 00:25:07;;;;;;;5.68;3.63;;;20.60;71.70;;;;;;5053399;28;20528;-67
2021/06/25 00:27:33;;;;;;;7.78;4.13;;;20.60;71.70;;;;;;5052909;28;20032;-66
2021/06/25 00:29:58;;;;;;;7.75;4.05;;;20.60;71.80;;;;;;5051948;28;20025;-66
2021/06/25 00:32:24;;;;;;;6.00;3.42;;;20.60;71.80;;;;;;5053083;28;20055;-67
2021/06/25 00:34:49;;;;;;;7.07;3.83;;;20.60;71.80;;;;;;5053210;28;20021;-67
2021/06/25 00:37:15;;;;;;;6.25;3.75;;;20.60;71.90;;;;;;5034858;28;20021;-67
2021/06/25 00:39:40;;;;;;;7.00;3.83;;;20.60;72.40;;;;;;5052983;28;20571;-65
2021/06/25 00:42:09;;;;;;;6.68;3.85;;;20.60;72.00;;;;;;5034696;28;20028;-66
2021/06/25 00:44:41;;;;;;;7.07;4.43;;;20.50;72.00;;;;;;5053039;28;20032;-66
2021/06/25 00:47:08;;;;;;;6.55;3.85;;;20.60;71.90;;;;;;5052695;28;20634;-66
2021/06/25 00:49:34;;;;;;;7.18;4.30;;;20.60;72.00;;;;;;5034939;28;20037;-67
2021/06/25 00:52:00;;;;;;;7.00;4.50;;;20.60;72.30;;;;;;5052836;28;20482;-66
2021/06/25 00:54:26;;;;;;;7.30;4.75;;;20.50;72.20;;;;;;5052811;28;20107;-66
2021/06/25 00:56:51;;;;;;;7.30;4.45;;;20.50;72.10;;;;;;5034792;28;20124;-67
2021/06/25 00:59:17;;;;;;;9.43;4.80;;;20.50;72.10;;;;;;5034797;28;20040;-67
2021/06/25 01:01:42;;;;;;;10.05;4.90;;;20.50;72.30;;;;;;5034633;28;20566;-67
2021/06/25 01:04:08;;;;;;;8.23;4.88;;;20.50;72.30;;;;;;5052643;28;20021;-67
2021/06/25 01:06:33;;;;;;;7.30;4.22;;;20.50;72.30;;;;;;5034693;28;20026;-66
2021/06/25 01:09:01;;;;;;;7.28;4.38;;;20.50;72.20;;;;;;5034477;28;20657;-67
2021/06/25 01:11:30;;;;;;;6.78;4.45;;;20.50;72.40;;;;;;5052428;28;20040;-66
2021/06/25 01:13:57;;;;;;;7.30;4.80;;;20.40;72.30;;;;;;5052478;28;20107;-66
2021/06/25 01:16:23;;;;;;;7.13;4.43;;;20.50;72.40;;;;;;5052335;28;20441;-67
2021/06/25 01:18:48;;;;;;;6.38;4.03;;;20.50;72.50;;;;;;5052127;28;20017;-67
2021/06/25 01:21:14;;;;;;;7.00;4.53;;;20.40;72.40;;;;;;5034251;28;20021;-66
2021/06/25 01:23:41;;;;;;;7.78;4.38;;;20.40;72.40;;;;;;5052316;28;20025;-66
2021/06/25 01:26:07;;;;;;;6.40;4.15;;;20.40;72.50;;;;;;5052187;28;20028;-67
2021/06/25 01:28:33;;;;;;;8.75;5.35;;;20.40;72.40;;;;;;5051927;28;20024;-67
2021/06/25 01:31:00;;;;;;;7.85;4.97;;;20.40;72.40;;;;;;5051934;28;20028;-67
2021/06/25 01:33:28;;;;;;;7.47;4.38;;;20.40;72.30;;;;;;5034286;28;20047;-66
2021/06/25 01:35:55;;;;;;;7.70;4.60;;;20.40;72.40;;;;;;5052088;28;20517;-67
2021/06/25 01:38:20;;;;;;;8.18;4.32;;;20.40;72.40;;;;;;5051751;28;20029;-67
2021/06/25 01:40:48;;;;;;;6.45;4.10;;;20.40;72.50;;;;;;5033900;28;20124;-66
2021/06/25 01:43:14;;;;;;;7.68;4.70;;;20.40;72.60;;;;;;5050939;28;20033;-66
2021/06/25 01:45:41;;;;;;;6.95;4.60;;;20.40;72.50;;;;;;5051970;28;20048;-67
2021/06/25 01:48:09;;;;;;;7.03;4.85;;;20.40;72.60;;;;;;5051504;28;20068;-66
2021/06/25 01:50:39;;;;;;;8.00;4.90;;;20.40;72.50;;;;;;5051784;28;20029;-67
2021/06/25 01:53:08;;;;;;;7.20;4.63;;;20.40;72.40;;;;;;5051892;28;20032;-66
2021/06/25 01:55:41;;;;;;;8.18;5.20;;;20.30;72.40;;;;;;5051762;28;20029;-66
2021/06/25 01:58:09;;;;;;;7.38;4.97;;;20.30;72.30;;;;;;5051524;28;20027;-67
2021/06/25 02:00:36;;;;;;;8.20;5.25;;;20.30;72.30;;;;;;5051612;28;20028;-67
2021/06/25 02:03:02;;;;;;;8.82;5.28;;;20.30;72.30;;;;;;5051737;28;20021;-67
2021/06/25 02:05:27;;;;;;;7.07;4.30;;;20.30;72.30;;;;;;5051608;28;20035;-66
2021/06/25 02:07:53;;;;;;;7.82;4.88;;;20.30;72.30;;;;;;5051416;28;20021;-67
2021/06/25 02:10:18;;;;;;;8.75;4.95;;;20.30;72.20;;;;;;5033613;28;20029;-66
2021/06/25 02:12:44;;;;;;;9.50;4.80;;;20.30;72.80;;;;;;5051620;28;20032;-67
2021/06/25 02:15:10;;;;;;;7.28;4.93;;;20.30;72.30;;;;;;5051548;28;20025;-67
2021/06/25 02:17:36;;;;;;;8.63;4.60;;;20.30;72.20;;;;;;5033352;28;20037;-67
2021/06/25 02:20:05;;;;;;;7.38;4.70;;;20.30;72.30;;;;;;5051455;28;20029;-67
2021/06/25 02:22:30;;;;;;;7.10;4.60;;;20.30;72.40;;;;;;5051202;28;20060;-67
2021/06/25 02:24:56;;;;;;;7.97;4.25;;;20.30;72.40;;;;;;5033624;28;20044;-67
2021/06/25 02:27:21;;;;;;;11.55;4.82;;;20.30;72.30;;;;;;5051138;28;20525;-67
2021/06/25 02:29:47;;;;;;;7.15;4.55;;;20.30;72.30;;;;;;5051394;28;20021;-66
2021/06/25 02:32:12;;;;;;;7.25;4.30;;;20.30;72.20;;;;;;5033517;28;20025;-65
2021/06/25 02:34:38;;;;;;;7.03;4.55;;;20.30;72.30;;;;;;5033509;28;20119;-66
2021/06/25 02:37:03;;;;;;;8.35;4.68;;;20.30;72.30;;;;;;5051026;28;20108;-66
2021/06/25 02:39:29;;;;;;;7.35;4.57;;;20.20;72.10;;;;;;5033239;28;20075;-65
2021/06/25 02:41:54;;;;;;;8.68;4.70;;;20.30;72.10;;;;;;5032884;28;20025;-66
2021/06/25 02:44:20;;;;;;;8.15;4.10;;;20.20;72.20;;;;;;5051332;28;20395;-66
2021/06/25 02:46:45;;;;;;;6.45;3.95;;;20.20;72.40;;;;;;5051228;28;20040;-66
2021/06/25 02:49:11;;;;;;;6.68;3.97;;;20.20;72.50;;;;;;5033091;28;20022;-66
2021/06/25 02:51:36;;;;;;;7.50;4.10;;;20.20;72.50;;;;;;5033278;28;20441;-66
2021/06/25 02:54:03;;;;;;;9.70;4.43;;;20.20;72.40;;;;;;5052548;28;20033;-67
2021/06/25 02:56:29;;;;;;;7.00;3.72;;;20.20;72.50;;;;;;5040673;28;20060;-67
2021/06/25 02:58:54;;;;;;;6.15;4.03;;;20.20;72.50;;;;;;5036238;28;20490;-66
2021/06/25 03:01:20;;;;;;;7.88;4.15;;;20.20;72.60;;;;;;5054719;28;20037;-67
2021/06/25 03:03:45;;;;;;;9.73;4.47;;;20.20;72.60;;;;;;5054895;28;20098;-66
2021/06/25 03:06:11;;;;;;;7.28;4.45;;;20.20;72.60;;;;;;5037065;28;20021;-67
2021/06/25 03:08:36;;;;;;;5.95;3.92;;;20.20;72.70;;;;;;5036728;28;20053;-66
2021/06/25 03:11:02;;;;;;;6.20;4.05;;;20.20;72.70;;;;;;5054800;28;20071;-66
2021/06/25 03:13:28;;;;;;;7.65;4.47;;;20.20;72.70;;;;;;5054663;28;20025;-67
2021/06/25 03:15:54;;;;;;;6.07;4.13;;;20.20;72.80;;;;;;5054822;28;20029;-66
2021/06/25 03:18:20;;;;;;;6.38;3.95;;;20.10;72.80;;;;;;5054359;28;20097;-66
2021/06/25 03:20:46;;;;;;;6.72;4.32;;;20.20;73.00;;;;;;5054525;28;20094;-66
2021/06/25 03:23:12;;;;;;;6.88;4.20;;;20.10;72.90;;;;;;5054618;28;20386;-67
2021/06/25 03:25:38;;;;;;;7.10;4.18;;;20.10;73.20;;;;;;5036637;28;20021;-67
2021/06/25 03:28:04;;;;;;;6.82;4.40;;;20.10;73.30;;;;;;5036297;28;20025;-67
2021/06/25 03:30:33;;;;;;;7.40;4.20;;;20.10;73.40;;;;;;5054302;28;20029;-67
2021/06/25 03:32:59;;;;;;;7.22;4.47;;;20.10;73.40;;;;;;5036523;28;20021;-67
2021/06/25 03:35:24;;;;;;;6.70;4.35;;;20.10;73.50;;;;;;5036473;28;20032;-66
2021/06/25 03:37:50;;;;;;;7.22;4.40;;;20.10;73.50;;;;;;5036200;28;20049;-67
2021/06/25 03:40:16;;;;;;;6.93;4.43;;;20.10;73.50;;;;;;5036179;28;20517;-67
2021/06/25 03:42:43;;;;;;;7.45;4.53;;;20.10;73.50;;;;;;5035967;28;20029;-66
2021/06/25 03:45:11;;;;;;;6.90;4.20;;;20.10;73.50;;;;;;5036081;28;20024;-66
2021/06/25 03:47:36;;;;;;;6.28;4.10;;;20.10;73.50;;;;;;5048646;28;20036;-67
2021/06/25 03:50:04;;;;;;;6.13;4.25;;;20.10;73.60;;;;;;5031750;28;20018;-66
2021/06/25 03:52:29;;;;;;;6.10;3.90;;;20.10;73.50;;;;;;5049650;28;20033;-66
2021/06/25 03:54:55;;;;;;;7.07;4.30;;;20.10;73.50;;;;;;5042113;28;20044;-67
2021/06/25 03:57:20;;;;;;;7.13;4.10;;;20.10;73.40;;;;;;5050867;28;20029;-66
2021/06/25 03:59:46;;;;;;;8.15;4.43;;;20.10;73.40;;;;;;5052281;28;20032;-65
2021/06/25 04:02:11;;;;;;;6.40;4.38;;;20.10;73.50;;;;;;5049454;28;20033;-66
2021/06/25 04:04:37;;;;;;;8.68;4.50;;;20.10;73.50;;;;;;5052159;28;20099;-67
2021/06/25 04:07:04;;;;;;;7.57;4.85;;;20.10;73.30;;;;;;5034025;28;20055;-66
2021/06/25 04:09:30;;;;;;;8.55;5.20;;;20.10;73.90;;;;;;5022062;28;20382;-67
2021/06/25 04:11:56;;;;;;;7.25;4.90;;;20.10;73.30;;;;;;5053330;28;20064;-67
2021/06/25 04:14:21;;;;;;;7.80;4.63;;;20.10;73.40;;;;;;5033537;28;20056;-67
2021/06/25 04:16:47;;;;;;;6.22;4.22;;;20.10;73.30;;;;;;5034864;28;20033;-67
2021/06/25 04:19:12;;;;;;;7.07;4.60;;;20.10;73.40;;;;;;5034618;28;20395;-67
2021/06/25 04:21:38;;;;;;;10.98;4.68;;;20.10;74.00;;;;;;5023164;28;20033;-67
2021/06/25 04:24:04;;;;;;;7.50;5.07;;;20.10;73.40;;;;;;5023621;28;20045;-65
2021/06/25 04:26:30;;;;;;;9.18;4.95;;;20.10;73.40;;;;;;5027143;28;20091;-67
2021/06/25 04:28:55;;;;;;;8.93;5.43;;;20.10;73.60;;;;;;5035427;28;20734;-68
2021/06/25 04:31:21;;;;;;;11.23;5.38;;;20.10;73.60;;;;;;5027117;28;20029;-68
2021/06/25 04:33:46;;;;;;;12.85;5.53;;;20.20;73.80;;;;;;5027155;28;20033;-68
2021/06/25 04:36:12;;;;;;;13.63;6.03;;;20.10;74.30;;;;;;5027141;28;20029;-67
2021/06/25 04:38:37;;;;;;;20.38;6.03;;;20.20;74.40;;;;;;5015965;28;20037;-67
2021/06/25 04:41:03;;;;;;;9.90;5.93;;;20.20;74.30;;;;;;5045646;28;20040;-65
2021/06/25 04:43:29;;;;;;;13.77;5.50;;;20.20;74.40;;;;;;5046374;28;20508;-65
2021/06/25 04:45:55;;;;;;;15.52;6.05;;;20.30;74.30;;;;;;5023009;28;20029;-67
2021/06/25 04:48:21;;;;;;;13.27;5.82;;;20.30;74.40;;;;;;5046240;28;20024;-66
2021/06/25 04:50:47;;;;;;;13.88;6.13;;;20.30;74.50;;;;;;5028784;28;20052;-65
2021/06/25 04:53:12;;;;;;;13.13;6.20;;;20.30;74.60;;;;;;5045891;28;20098;-65
2021/06/25 04:55:41;;;;;;;14.63;6.47;;;20.30;74.60;;;;;;5043341;28;20044;-63
2021/06/25 04:58:11;;;;;;;15.13;6.68;;;20.30;74.80;;;;;;5045824;28;20103;-66
2021/06/25 05:00:38;;;;;;;18.10;6.60;;;20.30;75.00;;;;;;5046760;28;20059;-65
2021/06/25 05:03:05;;;;;;;10.45;6.15;;;20.20;74.80;;;;;;5029076;28;20445;-66
2021/06/25 05:05:31;;;;;;;12.75;6.55;;;20.30;74.70;;;;;;5040883;28;20131;-68
2021/06/25 05:07:57;;;;;;;51.35;10.45;;;20.30;74.40;;;;;;5044162;28;20269;-67
2021/06/25 05:10:22;;;;;;;80.53;13.30;;;20.30;74.30;;;;;;5026889;28;20603;-67
2021/06/25 05:12:48;;;;;;;74.72;11.80;;;20.30;74.20;;;;;;5044204;28;20017;-65
2021/06/25 05:15:14;;;;;;;46.25;10.50;;;20.30;74.10;;;;;;5043093;28;20040;-64
2021/06/25 05:17:40;;;;;;;30.77;8.85;;;20.30;74.10;;;;;;5027207;28;20024;-64
2021/06/25 05:20:06;;;;;;;31.83;8.35;;;20.30;74.30;;;;;;5039208;28;20508;-66
2021/06/25 05:22:31;;;;;;;22.15;7.15;;;20.50;74.70;;;;;;5044598;28;20029;-65
2021/06/25 05:24:57;;;;;;;25.58;7.30;;;20.40;74.70;;;;;;5026543;28;20051;-67
2021/06/25 05:27:23;;;;;;;20.92;7.18;;;20.40;74.60;;;;;;5011611;28;20025;-66
2021/06/25 05:29:48;;;;;;;19.20;7.20;;;20.50;74.20;;;;;;5026083;28;20104;-67
2021/06/25 05:32:14;;;;;;;14.55;7.10;;;20.50;74.00;;;;;;5024682;28;20079;-66
2021/06/25 05:34:39;;;;;;;22.27;7.68;;;20.60;75.00;;;;;;5037864;28;20032;-68
2021/06/25 05:37:05;;;;;;;22.60;7.75;;;20.60;74.60;;;;;;5045230;28;20394;-68
2021/06/25 05:39:30;;;;;;;11.93;7.47;;;20.60;73.80;;;;;;5044580;28;20033;-70
2021/06/25 05:41:56;;;;;;;16.63;6.90;;;20.60;73.00;;;;;;5044086;28;20028;-65
2021/06/25 05:44:21;;;;;;;15.60;6.85;;;20.60;73.50;;;;;;5044362;28;20090;-66
2021/06/25 05:46:47;;;;;;;13.23;7.18;;;20.70;73.00;;;;;;5027494;28;20025;-65
2021/06/25 05:49:14;;;;;;;13.77;6.85;;;20.70;72.60;;;;;;5045451;28;20407;-63
2021/06/25 05:51:39;;;;;;;10.82;6.72;;;20.70;72.10;;;;;;5045795;28;20067;-65
2021/06/25 05:54:05;;;;;;;13.80;6.65;;;20.80;72.10;;;;;;5046035;28;20433;-65
2021/06/25 05:56:30;;;;;;;17.25;7.90;;;20.80;71.90;;;;;;5045806;28;20033;-66
2021/06/25 05:58:56;;;;;;;13.35;7.10;;;20.80;72.20;;;;;;5045768;28;20025;-65
2021/06/25 06:01:21;;;;;;;18.55;7.03;;;20.80;71.30;;;;;;5028607;28;20062;-65
2021/06/25 06:03:47;;;;;;;13.65;7.93;;;20.90;72.20;;;;;;5051286;28;20053;-65
2021/06/25 06:06:12;;;;;;;18.60;7.93;;;20.80;72.40;;;;;;5051455;28;20457;-65
2021/06/25 06:08:38;;;;;;;15.68;8.93;;;20.90;72.30;;;;;;5033463;28;20589;-65
2021/06/25 06:11:07;;;;;;;14.20;7.07;;;21.00;71.70;;;;;;5051591;28;20027;-64
2021/06/25 06:13:32;;;;;;;11.85;7.50;;;21.10;70.60;;;;;;5051545;28;20426;-64
2021/06/25 06:15:58;;;;;;;13.13;8.10;;;21.20;70.90;;;;;;5051591;28;20025;-65
2021/06/25 06:18:36;;;;;;;12.93;6.80;;;21.20;70.70;;;;;;5033279;28;20441;-68
2021/06/25 06:21:02;;;;;;;14.35;8.20;;;21.30;70.00;;;;;;5051411;28;20177;-67
2021/06/25 06:31:45;;;;;;;11.77;9.05;;;21.20;71.70;;;;;;5055580;28;20039;-66
2021/06/25 06:34:11;;;;;;;12.10;8.63;;;21.20;71.00;;;;;;5055524;28;20447;-64
2021/06/25 06:36:45;;;;;;;13.43;9.73;;;21.30;70.70;;;;;;5037497;28;20505;-65
2021/06/25 06:39:13;;;;;;;13.95;10.10;;;21.40;69.90;;;;;;5055265;28;20055;-66
2021/06/25 06:41:39;;;;;;;12.90;9.95;;;21.50;70.60;;;;;;5037257;28;20104;-65
2021/06/25 06:44:06;;;;;;;12.15;9.80;;;21.40;69.40;;;;;;5037432;28;20312;-65
2021/06/25 06:46:33;;;;;;;11.10;7.53;;;21.30;69.70;;;;;;5037359;28;20039;-64
2021/06/25 06:48:59;;;;;;;12.43;8.82;;;21.30;69.70;;;;;;5055024;28;20060;-66
2021/06/25 06:51:25;;;;;;;12.93;9.52;;;21.30;69.70;;;;;;5054534;28;20021;-65
2021/06/25 06:53:52;;;;;;;12.80;7.68;;;21.40;68.90;;;;;;5037297;28;20083;-67
2021/06/25 06:56:20;;;;;;;11.02;8.45;;;21.50;68.40;;;;;;5055192;28;20100;-67
2021/06/25 06:58:46;;;;;;;12.02;8.77;;;21.60;67.10;;;;;;5036806;28;20017;-65
2021/06/25 07:01:12;;;;;;;10.35;7.95;;;21.70;66.60;;;;;;5054926;28;20336;-65
2021/06/25 07:03:38;;;;;;;11.50;8.57;;;21.70;66.60;;;;;;5037027;28;20021;-68
2021/06/25 07:06:04;;;;;;;10.93;8.45;;;21.70;66.30;;;;;;5054815;28;20074;-67
2021/06/25 07:08:30;;;;;;;10.13;7.78;;;21.90;65.30;;;;;;5036733;28;20394;-67
2021/06/25 07:10:56;;;;;;;10.68;7.40;;;22.00;65.30;;;;;;5054793;28;20025;-68
2021/06/25 07:13:22;;;;;;;12.57;8.98;;;22.20;65.10;;;;;;5054777;28;20035;-67
2021/06/25 07:15:48;;;;;;;11.55;8.93;;;22.30;64.40;;;;;;5036842;28;20402;-64
2021/06/25 07:18:13;;;;;;;13.88;10.23;;;22.30;64.30;;;;;;5036546;28;20029;-65
2021/06/25 07:20:39;;;;;;;11.43;8.10;;;22.10;63.40;;;;;;5054366;28;20032;-65
2021/06/25 07:23:05;;;;;;;13.30;9.27;;;21.90;65.20;;;;;;5037071;28;20104;-65
2021/06/25 07:25:31;;;;;;;10.52;8.18;;;21.70;65.80;;;;;;5054649;28;20040;-65
2021/06/25 07:27:57;;;;;;;14.25;9.63;;;21.50;66.20;;;;;;5054333;28;20029;-65
2021/06/25 07:30:23;;;;;;;12.93;9.65;;;21.50;66.10;;;;;;5054449;28;20071;-65
2021/06/25 07:32:49;;;;;;;12.80;9.25;;;21.50;65.60;;;;;;5054877;28;20028;-65
2021/06/25 07:35:14;;;;;;;13.05;9.63;;;21.80;65.60;;;;;;5036505;28;20311;-66
2021/06/25 07:37:40;;;;;;;12.88;10.35;;;22.00;64.70;;;;;;5036149;28;20029;-65
2021/06/25 07:40:07;;;;;;;16.35;9.75;;;22.30;63.40;;;;;;5052528;28;20048;-66
2021/06/25 07:42:33;;;;;;;12.75;7.75;;;22.30;63.20;;;;;;5046777;28;20100;-66
2021/06/25 07:45:00;;;;;;;11.80;8.77;;;22.40;63.00;;;;;;5047891;28;20032;-66
2021/06/25 07:47:26;;;;;;;11.63;7.78;;;22.40;63.10;;;;;;5047951;28;20051;-68
2021/06/25 07:49:52;;;;;;;12.23;8.52;;;22.40;62.70;;;;;;5048109;28;20075;-67
2021/06/25 07:52:18;;;;;;;14.10;8.65;;;22.50;63.20;;;;;;5048882;28;20116;-69
2021/06/25 07:54:44;;;;;;;14.55;8.70;;;22.50;62.70;;;;;;5048415;28;20048;-69
2021/06/25 07:57:10;;;;;;;18.88;8.90;;;22.60;62.30;;;;;;5048403;28;20044;-68
2021/06/25 07:59:35;;;;;;;15.48;9.02;;;22.60;62.00;;;;;;5048660;28;20037;-68
2021/06/25 08:02:01;;;;;;;15.55;9.65;;;22.60;61.50;;;;;;5030727;28;20703;-67
2021/06/25 08:04:28;;;;;;;16.30;9.38;;;22.70;61.20;;;;;;5030304;28;20449;-68
2021/06/25 08:06:54;;;;;;;16.92;9.50;;;22.70;61.30;;;;;;5030413;28;20569;-72
2021/06/25 08:09:20;;;;;;;16.85;9.23;;;22.70;61.30;;;;;;5048251;28;20056;-68
2021/06/25 08:11:46;;;;;;;15.38;9.27;;;22.70;60.80;;;;;;5048109;28;20033;-67
2021/06/25 08:14:12;;;;;;;13.00;9.23;;;22.90;60.10;;;;;;5047672;28;20036;-66
2021/06/25 08:16:37;;;;;;;15.57;10.48;;;23.00;58.80;;;;;;5041494;28;20033;-65
2021/06/25 08:19:03;;;;;;;13.35;9.55;;;23.10;57.00;;;;;;5047270;28;20037;-66
2021/06/25 08:21:30;;;;;;;16.48;9.25;;;23.20;58.30;;;;;;5047719;28;20060;-67
2021/06/25 08:23:57;;;;;;;16.58;12.32;;;23.20;58.10;;;;;;5029636;28;20032;-67
2021/06/25 08:26:22;;;;;;;22.50;10.68;;;23.20;56.40;;;;;;5047436;28;20860;-66
2021/06/25 08:28:49;;;;;;;16.63;10.95;;;23.30;57.60;;;;;;5047193;28;20095;-69
2021/06/25 08:31:15;;;;;;;18.60;13.30;;;23.20;57.50;;;;;;5047563;28;20444;-67
2021/06/25 08:33:41;;;;;;;13.65;9.95;;;23.30;57.60;;;;;;5047459;28;20266;-69
2021/06/25 08:36:07;;;;;;;16.48;11.07;;;23.40;57.30;;;;;;5029177;28;20203;-68
2021/06/25 08:38:33;;;;;;;16.90;11.30;;;23.40;57.30;;;;;;5029215;28;20545;-68
2021/06/25 08:40:59;;;;;;;14.73;11.90;;;23.40;57.00;;;;;;5028402;28;20120;-67
2021/06/25 08:43:25;;;;;;;14.07;9.98;;;23.40;55.60;;;;;;5028942;28;20211;-66
2021/06/25 08:45:51;;;;;;;12.43;9.52;;;23.40;57.10;;;;;;5047451;28;20032;-68
2021/06/25 08:48:17;;;;;;;15.05;10.10;;;23.50;56.20;;;;;;5028661;28;20029;-68
2021/06/25 08:50:51;;;;;;;13.13;9.93;;;23.50;55.90;;;;;;5047322;28;20096;-68
2021/06/25 08:53:17;;;;;;;13.30;9.13;;;23.50;55.80;;;;;;5045754;28;20045;-66
2021/06/25 08:55:43;;;;;;;12.80;9.32;;;23.60;55.20;;;;;;5029061;28;20060;-67
2021/06/25 08:58:20;;;;;;;13.45;8.70;;;23.70;51.80;;;;;;5046220;28;20033;-67
2021/06/25 09:00:46;;;;;;;12.70;8.25;;;23.70;53.30;;;;;;5047074;28;20426;-67
2021/06/25 09:03:25;;;;;;;12.73;7.70;;;23.60;54.60;;;;;;5046033;28;20021;-69
2021/06/25 09:05:52;;;;;;;11.63;8.15;;;23.60;50.70;;;;;;5026762;28;20025;-67
2021/06/25 09:08:29;;;;;;;12.35;7.47;;;23.70;49.30;;;;;;5044243;28;20104;-68
2021/06/25 09:11:00;;;;;;;12.70;8.57;;;23.70;52.80;;;;;;5045195;28;20497;-67
2021/06/25 09:13:37;;;;;;;12.95;8.73;;;23.70;52.60;;;;;;5045965;28;20044;-68
2021/06/25 09:16:27;;;;;;;12.95;8.45;;;23.60;52.60;;;;;;5045361;28;20036;-68
2021/06/25 09:19:03;;;;;;;12.15;8.23;;;23.60;53.10;;;;;;5039886;28;20037;-68
2021/06/25 09:21:37;;;;;;;11.77;8.20;;;23.60;53.60;;;;;;5044814;28;20033;-68
2021/06/25 09:24:16;;;;;;;11.98;7.90;;;23.60;53.10;;;;;;5045736;28;20052;-67
2021/06/25 09:26:41;;;;;;;12.50;8.93;;;23.70;52.70;;;;;;5027990;28;20027;-68
2021/06/25 09:29:28;;;;;;;12.48;8.52;;;23.90;49.40;;;;;;5045659;28;20032;-67
2021/06/25 09:32:04;;;;;;;15.27;8.20;;;23.80;50.60;;;;;;5045734;28;20104;-67
2021/06/25 09:34:50;;;;;;;9.50;6.68;;;24.00;50.30;;;;;;5045477;28;20163;-64
2021/06/25 09:37:18;;;;;;;10.70;7.57;;;23.90;51.40;;;;;;5045563;28;20041;-67
2021/06/25 09:39:59;;;;;;;12.55;7.70;;;24.00;50.70;;;;;;5045442;28;20044;-66
2021/06/25 09:42:24;;;;;;;;;;;23.90;51.20;;;;;;5027823;28;20383;-67
2021/06/25 09:45:11;;;;;;;11.40;6.93;;;23.90;51.10;;;;;;5045373;28;19951;-65
2021/06/25 09:47:38;;;;;;;10.10;6.80;;;24.00;50.50;;;;;;5045067;28;20037;-65
2021/06/25 09:50:14;;;;;;;10.23;6.63;;;24.00;51.10;;;;;;5045409;28;20032;-67
2021/06/25 09:52:50;;;;;;;10.15;7.05;;;24.00;51.10;;;;;;5027375;28;20028;-65
2021/06/25 09:55:17;;;;;;;10.57;6.30;;;24.00;51.30;;;;;;5027535;28;20151;-67
2021/06/25 09:58:12;;;;;;;10.68;6.35;;;24.00;50.70;;;;;;5045057;28;20493;-68
2021/06/25 10:03:52;;;;;;;10.43;7.00;;;24.00;45.80;;;;;;5045451;28;20028;-68
2021/06/25 10:06:25;;;;;;;10.68;7.03;;;24.00;47.30;;;;;;5044790;28;20104;-68
2021/06/25 10:08:52;;;;;;;8.40;5.82;;;23.90;46.90;;;;;;5044965;28;20033;-67
2021/06/25 10:11:20;;;;;;;9.05;5.63;;;23.90;49.60;;;;;;5026424;28;20124;-66
2021/06/25 10:13:48;;;;;;;10.38;5.88;;;23.80;47.70;;;;;;5026925;28;20033;-64
2021/06/25 10:16:14;;;;;;;8.50;5.35;;;23.80;49.40;;;;;;5045106;28;20128;-68
2021/06/25 10:18:44;;;;;;;9.20;4.82;;;23.70;45.70;;;;;;5026450;28;20034;-67
2021/06/25 10:21:13;;;;;;;8.50;5.77;;;23.70;48.90;;;;;;5044818;28;20029;-67
2021/06/25 10:23:48;;;;;;;8.60;5.50;;;23.60;49.20;;;;;;5026589;28;20071;-65
2021/06/25 10:26:16;;;;;;;9.07;5.35;;;23.50;49.70;;;;;;5045077;28;20505;-67
2021/06/25 10:28:44;;;;;;;8.75;5.15;;;23.40;49.60;;;;;;5026651;28;20022;-68
2021/06/25 10:31:11;;;;;;;10.38;5.63;;;23.40;49.90;;;;;;5026629;28;20033;-67
2021/06/25 10:33:38;;;;;;;8.65;5.97;;;23.30;50.10;;;;;;5044959;28;20029;-68
2021/06/25 10:36:06;;;;;;;9.00;5.50;;;23.20;49.70;;;;;;5044835;28;20190;-65
2021/06/25 10:38:32;;;;;;;9.65;6.18;;;23.30;50.20;;;;;;5026539;28;20441;-68
2021/06/25 10:41:01;;;;;;;9.45;5.22;;;23.30;50.40;;;;;;5026566;28;20391;-67
2021/06/25 10:43:47;;;;;;;7.85;5.05;;;23.30;50.40;;;;;;5044678;28;20033;-67
2021/06/25 10:46:25;;;;;;;10.25;4.90;;;23.30;50.40;;;;;;5044729;28;20104;-67
2021/06/25 10:48:53;;;;;;;10.80;5.65;;;23.40;50.20;;;;;;5026340;28;20071;-66
2021/06/25 10:51:31;;;;;;;8.15;5.13;;;23.30;50.00;;;;;;5044642;28;20025;-68
2021/06/25 10:54:13;;;;;;;9.27;4.80;;;23.40;50.20;;;;;;5026634;28;20029;-68
2021/06/25 10:56:49;;;;;;;10.18;4.68;;;23.50;48.20;;;;;;5026976;28;20032;-67
2021/06/25 10:59:23;;;;;;;8.73;4.80;;;23.60;49.50;;;;;;5026400;28;20263;-68
2021/06/25 11:02:04;;;;;;;7.60;4.63;;;23.50;49.20;;;;;;5026466;28;20029;-67
2021/06/25 11:04:41;;;;;;;9.95;4.07;;;23.50;46.20;;;;;;5044753;28;20475;-68
2021/06/25 11:07:19;;;;;;;7.45;4.10;;;23.40;48.50;;;;;;5026256;28;20452;-69
2021/06/25 11:09:57;;;;;;;7.88;3.75;;;23.30;47.80;;;;;;5044836;28;20223;-68
2021/06/25 11:12:40;;;;;;;6.60;3.80;;;23.20;48.50;;;;;;5044174;28;20021;-68
2021/06/25 11:15:05;;;;;;;5.45;2.90;;;23.20;43.30;;;;;;5044656;28;20029;-67
2021/06/25 11:17:47;;;;;;;6.00;3.38;;;23.20;41.20;;;;;;5046142;28;20036;-66
2021/06/25 11:20:21;;;;;;;6.40;3.30;;;23.30;41.20;;;;;;5048041;28;20017;-68
2021/06/25 11:23:10;;;;;;;5.60;3.35;;;23.30;43.50;;;;;;5030118;28;20451;-68
2021/06/25 11:25:55;;;;;;;6.90;3.45;;;23.20;46.00;;;;;;5030074;28;20044;-68
2021/06/25 11:28:25;;;;;;;6.32;3.00;;;23.20;44.60;;;;;;5047655;28;20394;-67
2021/06/25 11:30:50;;;;;;;5.65;2.90;;;23.20;45.80;;;;;;5047786;28;20059;-67
2021/06/25 11:33:26;;;;;;;8.43;3.13;;;23.20;45.60;;;;;;5029838;28;20458;-68
2021/06/25 11:35:53;;;;;;;6.18;2.78;;;23.20;42.50;;;;;;5029597;28;20025;-68
2021/06/25 11:38:18;;;;;;;5.90;2.97;;;23.20;46.90;;;;;;5029437;28;20056;-68
2021/06/25 11:40:48;;;;;;;5.80;2.45;;;23.10;47.10;;;;;;5029537;28;20543;-67
2021/06/25 11:43:19;;;;;;;4.70;2.40;;;23.10;45.90;;;;;;5048035;28;20029;-69
2021/06/25 11:45:49;;;;;;;5.65;2.60;;;23.00;45.90;;;;;;5047660;28;20029;-67
2021/06/25 11:48:15;;;;;;;5.95;2.50;;;22.90;45.10;;;;;;5047369;28;20035;-66
2021/06/25 11:50:41;;;;;;;4.35;2.20;;;22.80;45.40;;;;;;5029306;28;20060;-66
2021/06/25 11:53:07;;;;;;;6.00;2.40;;;22.80;45.30;;;;;;5029755;28;20496;-67
2021/06/25 11:55:33;;;;;;;5.18;2.33;;;22.90;46.70;;;;;;5029139;28;20024;-69
2021/06/25 11:57:58;;;;;;;6.07;2.42;;;22.90;46.70;;;;;;5041690;28;20652;-67
2021/06/25 12:00:27;;;;;;;5.00;2.08;;;22.90;44.90;;;;;;5029423;28;20050;-69
2021/06/25 12:02:56;;;;;;;4.88;2.45;;;22.90;46.10;;;;;;5047488;28;20402;-67
2021/06/25 12:05:33;;;;;;;4.97;2.03;;;22.90;46.80;;;;;;5029356;28;20025;-69
2021/06/25 12:08:15;;;;;;;5.47;2.20;;;22.90;47.80;;;;;;5047359;28;20021;-70
2021/06/25 12:11:04;;;;;;;4.75;2.47;;;22.90;47.10;;;;;;5047247;28;20122;-68
2021/06/25 12:13:30;;;;;;;4.90;2.40;;;22.90;42.90;;;;;;5047386;28;20052;-66
2021/06/25 12:15:56;;;;;;;5.38;2.10;;;23.00;45.30;;;;;;5015084;28;20026;-64
2021/06/25 12:18:26;;;;;;;4.18;2.13;;;23.00;46.80;;;;;;5027186;28;20033;-69
2021/06/25 12:21:12;;;;;;;4.45;2.20;;;23.00;47.30;;;;;;5009340;28;20025;-67
2021/06/25 12:23:38;;;;;;;4.57;2.22;;;22.90;47.10;;;;;;5027253;28;20066;-68
2021/06/25 12:26:15;;;;;;;4.65;2.13;;;22.80;46.50;;;;;;5009315;28;20163;-67
2021/06/25 12:28:42;;;;;;;5.20;2.00;;;22.80;45.20;;;;;;5026735;28;20029;-69
2021/06/25 12:31:20;;;;;;;4.35;2.00;;;22.80;47.40;;;;;;5009022;28;20036;-74
2021/06/25 12:33:46;;;;;;;6.78;2.10;;;22.80;46.30;;;;;;5030324;28;20021;-68
2021/06/25 12:36:14;;;;;;;5.18;1.90;;;22.90;46.70;;;;;;5045751;28;20044;-68
2021/06/25 12:38:40;;;;;;;5.25;2.00;;;22.90;46.10;;;;;;5045863;28;20064;-68
2021/06/25 12:41:10;;;;;;;5.57;1.70;;;22.80;46.00;;;;;;5044092;28;20048;-68
2021/06/25 12:43:47;;;;;;;4.32;1.80;;;22.80;44.40;;;;;;5029201;28;20486;-68
2021/06/25 12:46:15;;;;;;;4.13;1.60;;;22.90;43.20;;;;;;5046552;28;20033;-65
2021/06/25 12:48:43;;;;;;;3.65;1.90;;;22.80;43.00;;;;;;5046256;28;20025;-69
2021/06/25 12:51:12;;;;;;;4.57;1.77;;;22.80;41.00;;;;;;5025291;28;20489;-68
2021/06/25 12:53:40;;;;;;;3.58;1.60;;;22.90;40.60;;;;;;5025810;28;20025;-66
2021/06/25 12:56:18;;;;;;;4.95;1.60;;;22.90;43.30;;;;;;5025411;28;20041;-71
2021/06/25 12:58:47;;;;;;;4.65;1.83;;;22.80;43.80;;;;;;5025686;28;20112;-70